Time;durP1;ratioP1;P1;durP2;ratioP2;P2;SDS_P1;SDS_P2;PMS_P1;PMS_P2;Temp;Humidity;BMP_temperature;BMP_pressure;BME280_temperature;BME280_humidity;BME280_pressure;Samples;Min_cycle;Max_cycle;Signal;HPM_P1;HPM_P2
2023/10/15 00:00:15;;;;;;;;;3.00;3.00;;;;;15.09;93.41;101432.19;6216439;22;45463;-84
2023/10/15 00:02:43;;;;;;;;;1.33;1.33;;;;;14.92;92.64;101435.63;6190915;22;45361;-85
2023/10/15 00:05:18;;;;;;;;;2.00;1.67;;;;;15.06;93.40;101435.75;6191106;22;46195;-85
2023/10/15 00:07:44;;;;;;;;;3.00;3.00;;;;;14.82;93.52;101428.41;6192252;22;45208;-85
2023/10/15 00:10:12;;;;;;;;;1.00;1.00;;;;;14.90;94.33;101425.81;6221075;22;45229;-85
2023/10/15 00:12:43;;;;;;;;;0.00;0.00;;;;;15.00;93.72;101427.66;6193798;22;45390;-85
2023/10/15 00:15:19;;;;;;;;;1.67;1.67;;;;;14.90;93.13;101425.81;6189509;22;46928;-85
2023/10/15 00:17:50;;;;;;;;;2.00;1.00;;;;;14.90;93.39;101418.66;6190313;22;44811;-84
2023/10/15 00:20:20;;;;;;;;;2.67;2.67;;;;;15.03;93.17;101427.69;6218076;22;45668;-86
2023/10/15 00:22:47;;;;;;;;;1.00;1.00;;;;;14.90;92.89;101415.09;6217083;22;45314;-85
2023/10/15 00:25:14;;;;;;;;;2.00;2.00;;;;;14.91;92.95;101420.47;6190477;22;47490;-85
2023/10/15 00:27:44;;;;;;;;;2.00;2.00;;;;;15.00;92.43;101412.47;6219872;22;45301;-86
2023/10/15 00:30:13;;;;;;;;;1.00;1.00;;;;;14.82;91.67;101432.88;6181146;23;45369;-85
2023/10/15 00:32:43;;;;;;;;;2.00;2.00;;;;;14.91;92.28;101431.19;6160925;23;45371;-86
2023/10/15 00:35:10;;;;;;;;;1.00;1.00;;;;;14.79;92.39;101440.03;6164148;23;45334;-86
2023/10/15 00:37:40;;;;;;;;;2.00;2.00;;;;;14.72;92.26;101431.91;6190253;23;45352;-85
2023/10/15 00:40:15;;;;;;;;;1.67;1.67;;;;;14.71;92.40;101432.81;6163153;23;45361;-86
2023/10/15 00:42:44;;;;;;;;;1.00;1.00;;;;;14.70;93.50;101444.41;6188396;23;45324;-86
2023/10/15 00:45:10;;;;;;;;;2.00;2.00;;;;;14.54;92.15;101437.97;6188471;22;45344;-84
2023/10/15 00:47:37;;;;;;;;;1.00;1.00;;;;;14.49;91.79;101445.97;6162716;23;45223;-85
2023/10/15 00:50:08;;;;;;;;;1.33;1.33;;;;;14.44;91.94;101439.69;6189107;23;45646;-87
2023/10/15 00:52:37;;;;;;;;;1.00;1.00;;;;;14.49;92.74;101429.91;6188933;23;45314;-85
2023/10/15 00:55:05;;;;;;;;;1.00;1.00;;;;;14.48;92.37;101432.56;6187433;23;45411;-86
2023/10/15 00:57:41;;;;;;;;;1.00;1.00;;;;;14.44;92.65;101438.78;6160035;23;45353;-85
2023/10/15 01:00:36;;;;;;;;;1.00;1.00;;;;;14.62;91.69;101447.00;6188060;22;44804;-81
2023/10/15 01:03:03;;;;;;;;;1.00;1.00;;;;;14.64;92.38;101444.34;6208710;22;44745;-80
2023/10/15 01:15:53;;;;;;;;;1.00;1.00;;;;;14.28;91.08;101416.31;6047027;22;46356;-80
2023/10/15 01:18:18;;;;;;;;;1.67;1.67;;;;;14.27;91.74;101435.94;6210357;22;44532;-80
2023/10/15 01:20:44;;;;;;;;;2.00;2.00;;;;;14.24;92.24;101425.19;6207111;22;45157;-79
2023/10/15 01:23:28;;;;;;;;;1.00;1.00;;;;;14.40;92.25;101448.53;6207921;22;45172;-79
2023/10/15 01:26:00;;;;;;;;;3.00;2.00;;;;;14.35;92.33;101436.91;6183029;22;47390;-79
2023/10/15 01:28:36;;;;;;;;;1.67;1.67;;;;;14.37;92.05;101435.16;6207113;22;44930;-80
2023/10/15 01:31:05;;;;;;;;;1.67;1.67;;;;;14.38;92.39;101436.94;6208346;22;44805;-80
2023/10/15 01:33:32;;;;;;;;;1.67;1.67;;;;;14.38;92.64;101434.25;6207833;22;44812;-80
2023/10/15 01:38:34;;;;;;;;;1.67;1.00;;;;;14.46;92.29;101420.94;6124736;22;47053;-81
2023/10/15 01:41:03;;;;;;;;;1.00;1.00;;;;;14.60;92.28;101424.66;6213475;22;44899;-80
2023/10/15 01:43:35;;;;;;;;;1.00;1.00;;;;;14.50;92.03;101420.09;6239300;22;44936;-80
2023/10/15 01:46:07;;;;;;;;;0.33;0.00;;;;;14.46;92.16;101415.59;6239100;22;45373;-80
2023/10/15 01:48:32;;;;;;;;;1.67;1.67;;;;;14.47;91.68;101420.97;6212503;22;45138;-80
2023/10/15 01:51:04;;;;;;;;;1.00;1.00;;;;;14.69;91.53;101429.22;6239409;22;44833;-81
2023/10/15 01:53:34;;;;;;;;;1.00;1.00;;;;;14.51;91.59;101435.28;6213317;22;44916;-80
2023/10/15 01:56:04;;;;;;;;;2.33;1.00;;;;;14.48;91.13;101432.56;6212803;22;47171;-80
2023/10/15 01:58:31;;;;;;;;;0.00;0.00;;;;;14.62;91.11;101438.97;6239763;22;44741;-80
2023/10/15 02:01:20;;;;;;;;;0.00;0.00;;;;;14.62;90.75;101435.41;6239490;22;44749;-80
2023/10/15 02:03:47;;;;;;;;;1.00;1.00;;;;;14.40;89.10;101435.16;6238771;22;45015;-80
2023/10/15 02:06:16;;;;;;;;;0.67;0.67;;;;;14.29;89.28;101444.88;6239948;22;45025;-80
2023/10/15 02:08:45;;;;;;;;;0.00;0.00;;;;;14.26;90.53;101444.84;6213161;22;44850;-80
2023/10/15 02:11:21;;;;;;;;;1.00;1.00;;;;;14.37;91.00;101436.03;6237089;22;44827;-80
2023/10/15 02:13:48;;;;;;;;;1.67;1.67;;;;;14.38;90.32;101447.63;6237738;22;44881;-80
2023/10/15 02:16:29;;;;;;;;;1.00;1.00;;;;;14.20;90.53;101443.03;6212910;22;46981;-80
2023/10/15 02:18:58;;;;;;;;;2.67;0.67;;;;;14.17;90.40;101451.88;6212580;22;44846;-81
2023/10/15 02:21:31;;;;;;;;;1.00;0.33;;;;;14.26;90.70;101447.50;6239494;22;44756;-80
2023/10/15 02:24:06;;;;;;;;;3.00;1.00;;;;;14.19;90.93;101442.09;6212669;22;45075;-80
2023/10/15 02:26:32;;;;;;;;;1.00;1.00;;;;;14.26;90.90;101455.53;6235550;22;45079;-81
2023/10/15 02:29:06;;;;;;;;;0.33;0.33;;;;;14.26;90.82;101445.75;6238837;22;44839;-81
2023/10/15 02:31:31;;;;;;;;;3.00;2.67;;;;;14.23;90.30;101448.38;6238896;22;44848;-80
2023/10/15 02:33:57;;;;;;;;;4.00;1.33;;;;;14.17;90.66;101443.88;6212490;22;44885;-80
2023/10/15 02:36:30;;;;;;;;;3.33;3.33;;;;;14.38;90.68;101453.00;6211484;22;46773;-80
2023/10/15 02:38:56;;;;;;;;;1.00;1.00;;;;;14.15;90.43;101459.00;6197637;22;45048;-80
2023/10/15 02:41:31;;;;;;;;;4.00;2.00;;;;;14.17;90.60;101456.34;6182561;22;44785;-80
2023/10/15 02:44:12;;;;;;;;;1.00;1.00;;;;;14.34;90.36;101449.41;6193252;22;44809;-81
2023/10/15 02:46:38;;;;;;;;;2.00;2.00;;;;;14.11;90.42;101454.50;6240479;22;46758;-81
2023/10/15 02:49:15;;;;;;;;;2.00;2.00;;;;;14.10;90.20;101458.06;6214416;22;44643;-81
2023/10/15 02:51:41;;;;;;;;;2.00;1.33;;;;;14.04;90.45;101452.66;6239023;22;44872;-81
2023/10/15 02:54:26;;;;;;;;;3.33;2.00;;;;;13.93;89.97;101449.84;6212883;22;44867;-81
2023/10/15 02:56:56;;;;;;;;;1.00;1.00;;;;;13.92;89.83;101460.53;6236588;22;45066;-80
2023/10/15 02:59:22;;;;;;;;;1.33;1.33;;;;;13.82;90.65;101455.97;6239348;22;44933;-79
2023/10/15 03:02:08;;;;;;;;;2.00;2.00;;;;;13.84;90.31;101467.56;6232627;22;44895;-82
2023/10/15 03:04:33;;;;;;;;;1.00;1.00;;;;;13.73;90.79;101449.59;6218710;22;45428;-81
2023/10/15 03:07:17;;;;;;;;;3.67;2.67;;;;;13.77;90.53;101456.78;6227781;22;46414;-81
2023/10/15 03:09:44;;;;;;;;;1.00;1.00;;;;;13.72;90.93;101462.97;6212028;22;44849;-81
2023/10/15 03:12:14;;;;;;;;;1.00;1.00;;;;;13.71;91.39;101464.72;6238968;22;44917;-79
2023/10/15 03:14:41;;;;;;;;;1.00;1.00;;;;;13.76;91.80;101463.00;6239208;22;44942;-80
2023/10/15 03:17:13;;;;;;;;;2.67;2.67;;;;;13.70;91.10;101452.25;6237462;22;47735;-81
2023/10/15 03:28:11;;;;;;;;;1.00;1.00;;;;;13.70;91.75;101467.41;6128599;22;46855;-81
2023/10/15 03:30:44;;;;;;;;;2.33;1.00;;;;;13.63;92.02;101466.41;6212457;22;44757;-80
2023/10/15 03:33:11;;;;;;;;;3.00;2.00;;;;;13.67;91.63;101470.91;6237346;22;45350;-80
2023/10/15 03:35:39;;;;;;;;;1.33;1.33;;;;;13.63;91.48;101471.75;6218162;22;45254;-81
2023/10/15 03:38:06;;;;;;;;;1.00;1.00;;;;;13.62;91.71;101464.63;6264514;22;45833;-82
2023/10/15 03:40:47;;;;;;;;;3.00;3.00;;;;;13.58;91.68;101452.97;6242388;22;44792;-81
2023/10/15 03:43:16;;;;;;;;;1.00;1.00;;;;;13.65;91.87;101469.09;6219832;22;44860;-80
2023/10/15 03:45:50;;;;;;;;;1.00;1.00;;;;;13.77;92.05;101464.78;6218221;22;44999;-81
2023/10/15 03:48:21;;;;;;;;;1.33;1.33;;;;;13.79;91.68;101481.78;6268699;22;45336;-80
2023/10/15 03:50:54;;;;;;;;;2.00;2.00;;;;;13.60;91.94;101461.91;6242388;22;44744;-81
2023/10/15 03:53:32;;;;;;;;;0.33;0.33;;;;;13.74;91.44;101474.56;6268624;22;44805;-81
2023/10/15 03:56:03;;;;;;;;;1.00;1.00;;;;;13.70;91.87;101476.31;6267228;22;44753;-80
2023/10/15 03:58:31;;;;;;;;;2.00;2.00;;;;;13.54;91.75;101479.66;6242710;22;46636;-80
2023/10/15 04:03:35;;;;;;;;;1.00;1.00;;;;;13.46;91.58;101490.22;6267019;22;44964;-80
2023/10/15 04:06:01;;;;;;;;;2.00;2.00;;;;;13.44;92.21;101485.75;6242965;22;44846;-80
2023/10/15 04:08:32;;;;;;;;;1.67;1.67;;;;;13.61;92.67;101492.22;6242719;22;46861;-80
2023/10/15 04:11:01;;;;;;;;;1.00;1.00;;;;;13.60;91.97;101491.31;6266470;22;44746;-80
2023/10/15 04:13:28;;;;;;;;;1.67;1.67;;;;;13.62;91.84;101502.03;6266843;22;44772;-81
2023/10/15 04:15:54;;;;;;;;;2.33;1.00;;;;;13.58;91.84;101501.09;6268117;22;44733;-80
2023/10/15 04:18:24;;;;;;;;;1.33;1.00;;;;;13.65;92.20;101496.72;6266374;22;45085;-81
2023/10/15 04:20:53;;;;;;;;;0.00;0.00;;;;;13.58;90.56;101508.22;6216347;22;45001;-81
2023/10/15 04:23:31;;;;;;;;;2.00;2.00;;;;;13.48;91.25;101498.28;6266703;22;44832;-82
2023/10/15 04:26:07;;;;;;;;;1.33;1.33;;;;;13.75;92.34;101508.44;6241258;22;46146;-81
2023/10/15 04:28:36;;;;;;;;;2.00;2.00;;;;;13.68;92.30;101503.91;6239842;22;46687;-81
2023/10/15 04:31:12;;;;;;;;;1.00;1.00;;;;;13.90;91.93;101521.13;6271000;22;44697;-82
2023/10/15 04:33:43;;;;;;;;;1.67;1.33;;;;;13.74;90.49;101523.59;6242893;22;44838;-81
2023/10/15 04:36:09;;;;;;;;;2.33;2.33;;;;;13.65;90.43;101526.13;6266570;22;44856;-81
2023/10/15 04:38:36;;;;;;;;;2.00;2.00;;;;;13.68;90.31;101531.53;6266014;22;45475;-81
2023/10/15 04:41:03;;;;;;;;;3.00;2.00;;;;;13.60;91.78;101534.09;6268696;22;44821;-81
2023/10/15 04:43:29;;;;;;;;;1.00;1.00;;;;;13.62;92.18;101539.44;6268763;22;44858;-81
2023/10/15 04:45:56;;;;;;;;;3.00;3.00;;;;;13.69;90.91;101546.66;6242202;22;44904;-81
2023/10/15 04:48:32;;;;;;;;;2.00;2.00;;;;;13.67;91.78;101548.41;6265837;22;45191;-81
2023/10/15 04:51:04;;;;;;;;;1.33;1.33;;;;;13.55;91.82;101537.56;6262728;22;45420;-86
2023/10/15 04:53:30;;;;;;;;;2.00;2.00;;;;;13.50;91.84;101544.63;6219131;22;45416;-86
2023/10/15 04:55:57;;;;;;;;;3.67;2.67;;;;;13.51;91.04;101533.97;6251481;22;45258;-80
2023/10/15 04:58:29;;;;;;;;;3.00;3.00;;;;;13.42;91.97;101535.59;6243164;22;46881;-81
2023/10/15 05:01:48;;;;;;;;;2.67;2.67;;;;;13.68;91.68;101546.66;6264668;22;44777;-81
2023/10/15 05:04:14;;;;;;;;;3.00;3.00;;;;;13.56;92.31;101544.72;6248316;22;45305;-82
2023/10/15 05:06:40;;;;;;;;;3.00;1.00;;;;;13.47;92.34;101541.88;6250596;22;45700;-81
2023/10/15 05:09:15;;;;;;;;;2.00;2.00;;;;;13.53;92.59;101541.97;6251087;22;45500;-82
2023/10/15 05:11:42;;;;;;;;;2.00;2.00;;;;;13.56;91.81;101540.25;6251310;22;45317;-82
2023/10/15 05:14:08;;;;;;;;;3.00;2.00;;;;;13.56;91.36;101540.25;6224187;22;45367;-81
2023/10/15 05:16:36;;;;;;;;;2.00;2.00;;;;;13.50;91.17;101531.25;6223984;22;45411;-81
2023/10/15 05:19:01;;;;;;;;;3.00;2.00;;;;;13.49;92.23;101519.69;6250511;22;45285;-83
2023/10/15 05:21:29;;;;;;;;;2.00;2.00;;;;;13.55;92.05;101530.47;6249369;22;45254;-81
2023/10/15 05:23:55;;;;;;;;;5.00;4.00;;;;;13.58;92.40;101525.16;6222078;22;45618;-81
2023/10/15 05:26:21;;;;;;;;;3.00;1.00;;;;;13.70;92.26;101532.44;6194045;22;45329;-81
2023/10/15 05:28:47;;;;;;;;;2.67;2.00;;;;;13.72;91.61;101525.34;6248660;22;45362;-81
2023/10/15 05:31:13;;;;;;;;;2.67;2.67;;;;;13.76;91.77;101527.19;6221762;22;45339;-81
2023/10/15 05:33:38;;;;;;;;;2.67;2.00;;;;;13.71;91.61;101526.19;6246843;22;45356;-81
2023/10/15 05:36:06;;;;;;;;;0.00;0.00;;;;;13.71;91.46;101534.22;6219199;22;45600;-81
2023/10/15 05:38:31;;;;;;;;;3.00;2.67;;;;;13.60;91.20;101535.88;6218732;22;47465;-81
2023/10/15 05:40:57;;;;;;;;;1.33;1.33;;;;;13.58;91.55;101524.25;6220932;22;45584;-82
2023/10/15 05:43:24;;;;;;;;;3.33;2.33;;;;;13.47;91.02;101544.56;6247585;22;45427;-82
2023/10/15 05:45:49;;;;;;;;;2.33;2.33;;;;;13.32;91.29;101530.09;6220980;22;45308;-82
2023/10/15 05:48:17;;;;;;;;;3.00;3.00;;;;;13.36;91.75;101542.63;6218869;22;47130;-82
2023/10/15 05:50:47;;;;;;;;;2.00;2.00;;;;;13.36;91.54;101541.75;6247202;22;45266;-82
2023/10/15 05:53:14;;;;;;;;;3.33;2.00;;;;;13.15;91.44;101542.28;6220534;22;45448;-82
2023/10/15 05:55:39;;;;;;;;;3.00;3.00;;;;;13.14;92.19;101551.16;6221125;22;45383;-82
2023/10/15 05:58:07;;;;;;;;;4.00;2.33;;;;;13.01;91.98;101529.59;6219591;22;46944;-82
2023/10/15 06:03:57;;;;;;;;;2.67;2.67;;;;;13.18;92.44;101550.31;6250949;22;45403;-82
2023/10/15 06:06:27;;;;;;;;;3.00;3.00;;;;;12.99;92.99;101542.00;6223958;22;45579;-82
2023/10/15 06:08:56;;;;;;;;;3.00;3.00;;;;;13.13;92.79;101549.38;6251660;22;46240;-82
2023/10/15 06:11:21;;;;;;;;;4.33;3.00;;;;;12.98;92.91;101563.34;6243177;22;45450;-80
2023/10/15 06:13:48;;;;;;;;;2.67;2.67;;;;;12.98;93.05;101558.00;6248282;22;45312;-81
2023/10/15 06:16:14;;;;;;;;;2.00;2.00;;;;;12.95;93.06;101558.84;6219898;22;44842;-81
2023/10/15 06:18:40;;;;;;;;;2.67;2.00;;;;;12.97;92.90;101559.78;6242901;22;45612;-82
2023/10/15 06:21:05;;;;;;;;;3.00;3.00;;;;;12.93;93.19;101555.25;6221648;22;45353;-81
2023/10/15 06:23:30;;;;;;;;;3.67;2.67;;;;;12.99;93.23;101560.69;6247942;22;45241;-81
2023/10/15 06:25:56;;;;;;;;;3.00;3.00;;;;;12.99;92.74;101567.81;6246864;22;44874;-82
2023/10/15 06:28:23;;;;;;;;;2.00;2.00;;;;;13.10;93.57;101566.22;6247515;22;45582;-81
2023/10/15 06:30:48;;;;;;;;;2.00;1.00;;;;;13.01;93.42;101574.09;6220482;22;45539;-81
2023/10/15 06:33:16;;;;;;;;;3.00;3.00;;;;;13.04;93.20;101570.56;6220807;22;45302;-81
2023/10/15 06:35:43;;;;;;;;;2.33;2.33;;;;;13.04;93.54;101574.13;6220994;22;45565;-82
2023/10/15 06:38:08;;;;;;;;;3.00;3.00;;;;;13.10;93.15;101573.34;6196087;22;47119;-80
2023/10/15 06:40:37;;;;;;;;;3.00;3.00;;;;;13.26;93.16;101585.19;6248491;22;45265;-81
2023/10/15 06:43:03;;;;;;;;;3.00;3.00;;;;;13.10;92.30;101586.69;6221877;22;45738;-82
2023/10/15 06:45:31;;;;;;;;;2.67;2.67;;;;;13.10;92.82;101594.69;6248755;22;45437;-81
2023/10/15 06:47:57;;;;;;;;;5.00;4.00;;;;;13.11;92.31;101593.81;6195294;22;48327;-81
2023/10/15 06:50:23;;;;;;;;;4.00;4.00;;;;;13.08;92.60;101594.66;6246367;22;45395;-82
2023/10/15 06:52:48;;;;;;;;;4.00;3.67;;;;;13.12;93.25;101590.28;6258267;22;44748;-81
2023/10/15 06:55:14;;;;;;;;;6.33;4.00;;;;;13.22;93.07;101600.25;6270109;22;44935;-81
2023/10/15 06:57:41;;;;;;;;;4.00;3.00;;;;;13.31;93.00;101608.47;6270175;22;45158;-80
2023/10/15 07:00:21;;;;;;;;;9.00;7.33;;;;;13.50;92.75;101616.78;6269801;22;44807;-81
2023/10/15 07:02:48;;;;;;;;;4.67;4.67;;;;;13.40;92.44;101619.28;6242475;22;44796;-80
2023/10/15 07:05:18;;;;;;;;;5.00;4.00;;;;;13.57;92.52;101619.59;6269995;22;44891;-81
2023/10/15 07:07:45;;;;;;;;;4.00;4.00;;;;;13.45;91.94;101615.78;6269869;22;45021;-81
2023/10/15 07:10:12;;;;;;;;;4.33;4.00;;;;;13.48;92.07;101623.88;6269308;22;44904;-80
2023/10/15 07:12:37;;;;;;;;;5.00;5.00;;;;;13.44;91.79;101619.34;6242083;22;44671;-81
2023/10/15 07:15:05;;;;;;;;;0.00;0.00;;;;;13.37;91.30;101613.91;6268218;22;44755;-80
2023/10/15 07:17:30;;;;;;;;;5.00;4.00;;;;;13.40;90.91;101624.63;6230924;22;46894;-85
2023/10/15 07:19:56;;;;;;;;;6.00;5.67;;;;;13.42;90.76;101626.44;6251530;22;45296;-85
2023/10/15 07:22:21;;;;;;;;;4.00;4.00;;;;;13.49;90.79;101628.31;6249993;22;45262;-86
2023/10/15 07:24:50;;;;;;;;;4.00;3.00;;;;;13.65;91.41;101635.72;6248539;22;45367;-83
2023/10/15 07:27:16;;;;;;;;;4.00;3.67;;;;;13.59;91.11;101638.28;6218949;22;46836;-85
2023/10/15 07:29:41;;;;;;;;;4.00;4.00;;;;;13.64;90.70;101623.25;6194762;22;45406;-84
2023/10/15 07:32:07;;;;;;;;;4.33;4.33;;;;;13.75;89.71;101634.09;6218018;22;45325;-86
2023/10/15 07:34:33;;;;;;;;;4.00;4.00;;;;;13.80;90.19;101635.06;6221441;22;45335;-86
2023/10/15 07:36:58;;;;;;;;;3.00;3.00;;;;;13.82;89.63;101643.13;6221818;22;48107;-87
2023/10/15 07:39:25;;;;;;;;;9.33;7.33;;;;;13.98;90.17;101645.16;6220781;22;45327;-87
2023/10/15 07:41:51;;;;;;;;;4.00;4.00;;;;;13.90;89.29;101646.81;6221643;22;44732;-84
2023/10/15 07:44:17;;;;;;;;;3.33;3.33;;;;;13.91;89.44;101643.25;6224345;22;45685;-86
2023/10/15 07:46:45;;;;;;;;;5.00;4.00;;;;;13.97;88.53;101654.03;6225685;22;47179;-86
2023/10/15 07:49:14;;;;;;;;;4.33;4.33;;;;;14.01;88.35;101646.06;6223659;22;45423;-85
2023/10/15 07:51:39;;;;;;;;;5.00;4.00;;;;;14.03;87.33;101658.56;6220484;22;44798;-85
2023/10/15 07:54:06;;;;;;;;;4.00;4.00;;;;;14.05;86.53;101654.16;6221357;22;45435;-84
2023/10/15 07:56:34;;;;;;;;;4.67;4.67;;;;;13.96;87.44;101652.25;6194522;22;46989;-86
2023/10/15 07:59:02;;;;;;;;;3.00;3.00;;;;;14.03;87.33;101659.47;6219725;22;45442;-85
2023/10/15 08:01:33;;;;;;;;;3.00;3.00;;;;;14.12;88.00;101661.41;6247641;22;45331;-86
2023/10/15 08:04:02;;;;;;;;;6.33;3.67;;;;;14.36;87.90;101667.06;6220571;22;45467;-86
2023/10/15 08:06:29;;;;;;;;;3.33;3.33;;;;;14.26;87.34;101656.22;6222174;22;47219;-86
2023/10/15 08:08:56;;;;;;;;;4.00;4.00;;;;;14.26;86.27;101672.25;6221988;22;45368;-87
2023/10/15 08:11:21;;;;;;;;;5.00;5.00;;;;;14.27;86.90;101661.59;6219286;22;45245;-85
2023/10/15 08:13:50;;;;;;;;;5.00;5.00;;;;;14.35;87.40;101656.34;6219472;22;45519;-81
2023/10/15 08:16:18;;;;;;;;;2.00;2.00;;;;;14.58;87.18;101670.97;6248905;22;45417;-81
2023/10/15 08:18:44;;;;;;;;;3.00;3.00;;;;;14.53;87.13;101659.25;6223937;22;45325;-81
2023/10/15 08:21:11;;;;;;;;;4.00;4.00;;;;;14.64;87.14;101663.88;6252232;22;45386;-81
2023/10/15 08:23:38;;;;;;;;;3.00;3.00;;;;;14.71;86.76;101677.34;6224740;22;45533;-81
2023/10/15 08:26:05;;;;;;;;;3.33;2.00;;;;;14.63;86.03;101671.00;6249850;22;45933;-80
2023/10/15 08:28:31;;;;;;;;;4.00;4.00;;;;;14.75;85.58;101676.50;6222842;22;45428;-81
2023/10/15 08:30:57;;;;;;;;;4.00;4.00;;;;;14.77;85.67;101676.53;6222740;22;45178;-80
2023/10/15 08:33:23;;;;;;;;;3.33;3.33;;;;;14.88;84.31;101680.22;6251085;22;45321;-81
2023/10/15 08:35:49;;;;;;;;;5.33;4.33;;;;;14.88;83.89;101680.22;6248896;22;45350;-81
2023/10/15 08:38:15;;;;;;;;;4.33;4.00;;;;;14.92;84.89;101690.09;6247528;22;45405;-82
2023/10/15 08:40:45;;;;;;;;;4.00;4.00;;;;;14.89;83.05;101678.47;6246076;22;45371;-82
2023/10/15 08:43:24;;;;;;;;;2.67;2.67;;;;;14.90;82.15;101673.09;6218579;22;45624;-81
2023/10/15 08:45:58;;;;;;;;;3.67;3.00;;;;;14.96;83.45;101683.88;6217899;22;45449;-81
2023/10/15 08:48:28;;;;;;;;;4.67;3.67;;;;;14.96;83.58;101686.56;6245408;22;45400;-81
2023/10/15 08:50:57;;;;;;;;;2.67;2.67;;;;;14.91;80.91;101691.00;6214398;22;44840;-81
2023/10/15 08:53:25;;;;;;;;;1.00;1.00;;;;;14.83;81.40;101698.03;6218868;22;45555;-80
2023/10/15 08:55:57;;;;;;;;;3.00;3.00;;;;;14.94;82.56;101696.34;6218029;22;46713;-81
2023/10/15 08:58:25;;;;;;;;;2.33;2.33;;;;;14.96;81.02;101697.28;6245380;22;45360;-81
2023/10/15 09:00:53;;;;;;;;;1.33;1.33;;;;;15.03;80.59;101697.34;6221119;22;45372;-81
2023/10/15 09:03:23;;;;;;;;;4.67;1.67;;;;;14.92;78.83;101703.47;6221652;22;45397;-81
2023/10/15 09:05:52;;;;;;;;;4.33;4.33;;;;;14.99;81.75;101697.31;6221049;22;45343;-81
2023/10/15 09:08:19;;;;;;;;;3.00;3.00;;;;;15.06;80.76;101702.75;6221381;22;45404;-80
2023/10/15 09:10:52;;;;;;;;;3.33;3.33;;;;;15.15;82.04;101705.53;6221545;22;45387;-82
2023/10/15 09:13:21;;;;;;;;;8.33;4.00;;;;;15.16;79.69;101707.31;6221388;22;45415;-81
2023/10/15 09:15:49;;;;;;;;;4.33;3.00;;;;;15.24;80.85;101707.41;6248874;22;46287;-81
2023/10/15 09:18:15;;;;;;;;;2.67;2.67;;;;;15.20;80.10;101698.44;6222079;22;45297;-81
2023/10/15 09:20:43;;;;;;;;;6.00;4.33;;;;;15.35;80.14;101713.75;6223356;22;45292;-81
2023/10/15 09:23:09;;;;;;;;;2.33;2.33;;;;;15.42;78.84;101704.03;6249806;22;45760;-82
2023/10/15 09:25:35;;;;;;;;;1.67;1.00;;;;;15.60;78.47;101701.50;6251388;22;46124;-81
2023/10/15 09:28:01;;;;;;;;;4.00;4.00;;;;;15.66;79.15;101703.34;6225340;22;44920;-81
2023/10/15 09:30:30;;;;;;;;;1.00;1.00;;;;;15.89;78.03;101711.59;6251873;22;45406;-81
2023/10/15 09:32:59;;;;;;;;;2.00;2.00;;;;;15.96;77.33;101714.34;6252425;22;45315;-82
2023/10/15 09:35:24;;;;;;;;;1.33;1.33;;;;;16.00;77.13;101712.59;6224138;22;45422;-82
2023/10/15 09:37:53;;;;;;;;;0.00;0.00;;;;;16.17;76.61;101713.59;6248110;22;45319;-82
2023/10/15 09:40:19;;;;;;;;;0.00;0.00;;;;;16.07;70.89;101711.72;6220104;22;44705;-82
2023/10/15 09:42:48;;;;;;;;;1.67;1.00;;;;;16.05;71.70;101708.13;6249267;22;45677;-82
2023/10/15 09:45:18;;;;;;;;;0.00;0.00;;;;;16.12;72.71;101719.84;6249956;22;46251;-82
2023/10/15 09:47:48;;;;;;;;;1.00;1.00;;;;;16.26;72.94;101718.13;6222535;22;45819;-81
2023/10/15 09:50:19;;;;;;;;;0.00;0.00;;;;;16.31;69.91;101715.47;6222996;22;45803;-81
2023/10/15 09:52:55;;;;;;;;;0.00;0.00;;;;;16.22;70.13;101720.75;6251758;22;45301;-82
2023/10/15 09:55:26;;;;;;;;;0.00;0.00;;;;;16.17;68.73;101718.94;6249483;22;46281;-82
2023/10/15 09:58:09;;;;;;;;;1.00;1.00;;;;;16.10;67.66;101717.13;6222542;22;45457;-81
2023/10/15 10:03:47;;;;;;;;;1.00;1.00;;;;;16.12;69.40;101726.09;6249525;22;45331;-81
2023/10/15 10:06:31;;;;;;;;;2.00;0.00;;;;;15.91;67.95;101731.28;6217741;22;45749;-82
2023/10/15 10:09:16;;;;;;;;;0.00;0.00;;;;;16.22;69.44;101723.44;6219465;22;45579;-82
2023/10/15 10:12:07;;;;;;;;;0.00;0.00;;;;;16.26;67.91;101723.50;6245820;22;45245;-82
2023/10/15 10:14:54;;;;;;;;;1.00;1.00;;;;;16.06;68.54;101717.06;6220982;22;45475;-81
2023/10/15 10:17:25;;;;;;;;;2.00;0.00;;;;;16.33;66.55;101716.38;6221479;22;46853;-80
2023/10/15 10:19:53;;;;;;;;;0.00;0.00;;;;;16.44;66.56;101728.09;6222206;22;45458;-81
2023/10/15 10:22:31;;;;;;;;;1.00;1.00;;;;;16.45;63.58;101727.19;6220681;22;45307;-80
2023/10/15 10:25:00;;;;;;;;;0.33;0.33;;;;;16.48;62.64;101735.28;6220920;22;45427;-81
2023/10/15 10:27:32;;;;;;;;;1.00;1.00;;;;;16.45;65.69;101737.94;6245422;22;45387;-81
2023/10/15 10:30:27;;;;;;;;;0.00;0.00;;;;;16.49;62.88;101742.41;6247710;22;45403;-81
2023/10/15 10:32:57;;;;;;;;;1.00;1.00;;;;;16.43;63.20;101746.88;6248942;22;45439;-82
2023/10/15 10:35:24;;;;;;;;;2.00;2.00;;;;;16.20;63.84;101737.78;6247239;22;45233;-82
2023/10/15 10:38:07;;;;;;;;;1.00;1.00;;;;;16.54;62.72;101750.50;6216344;22;47057;-82
2023/10/15 10:40:52;;;;;;;;;1.00;0.00;;;;;16.63;60.31;101729.06;6217020;22;45362;-82
2023/10/15 10:43:27;;;;;;;;;2.00;1.00;;;;;16.72;64.51;101741.63;6248151;22;45293;-81
2023/10/15 10:46:48;;;;;;;;;1.00;1.00;;;;;16.85;63.61;101740.84;6249171;22;45297;-81
2023/10/15 10:49:16;;;;;;;;;1.67;1.67;;;;;16.59;60.41;101746.06;6220041;22;47289;-81
2023/10/15 10:52:02;;;;;;;;;0.00;0.00;;;;;16.48;63.35;101740.66;6247683;22;45389;-81
2023/10/15 10:54:28;;;;;;;;;1.00;1.00;;;;;16.39;59.82;101745.94;6247589;22;45281;-81
2023/10/15 10:56:59;;;;;;;;;0.00;0.00;;;;;16.50;62.57;101746.00;6220175;22;45222;-81
2023/10/15 10:59:25;;;;;;;;;0.00;0.00;;;;;16.35;63.21;101739.66;6220080;22;47847;-81
2023/10/15 11:01:51;;;;;;;;;1.33;0.00;;;;;16.38;60.85;101744.13;6220357;22;45398;-81
2023/10/15 11:04:17;;;;;;;;;0.00;0.00;;;;;16.34;62.03;101736.94;6246194;22;45322;-81
2023/10/15 11:06:48;;;;;;;;;0.00;0.00;;;;;16.47;62.70;101746.00;6219116;22;45519;-81
2023/10/15 11:09:20;;;;;;;;;0.67;0.67;;;;;16.34;59.95;101748.59;6246752;22;45418;-81
2023/10/15 11:15:08;;;;;;;;;1.00;1.00;;;;;16.33;59.60;101741.44;6247287;22;45387;-81
2023/10/15 11:17:34;;;;;;;;;0.67;0.67;;;;;16.32;61.51;101747.69;6247958;22;45356;-81
2023/10/15 11:20:03;;;;;;;;;4.00;1.00;;;;;16.43;62.03;101749.56;6220628;22;45374;-81
2023/10/15 11:22:30;;;;;;;;;0.67;0.67;;;;;16.51;58.72;101751.38;6248323;22;45407;-81
2023/10/15 11:24:58;;;;;;;;;1.00;1.00;;;;;16.57;56.36;101735.31;6249621;22;45408;-81
2023/10/15 11:27:31;;;;;;;;;0.00;0.00;;;;;16.60;58.12;101732.66;6216810;22;45391;-81
2023/10/15 11:29:56;;;;;;;;;0.33;0.33;;;;;16.35;60.55;101730.72;6216885;22;47107;-80
2023/10/15 11:32:22;;;;;;;;;0.00;0.00;;;;;16.37;57.69;101736.97;6242862;22;45387;-81
2023/10/15 11:34:48;;;;;;;;;1.00;1.00;;;;;16.40;59.68;101736.97;6220528;22;45390;-81
2023/10/15 11:37:16;;;;;;;;;0.00;0.00;;;;;16.51;60.24;101740.66;6222207;22;45368;-81
2023/10/15 11:39:43;;;;;;;;;0.00;0.00;;;;;16.55;59.82;101722.75;6220829;22;47474;-81
2023/10/15 11:42:11;;;;;;;;;1.67;1.00;;;;;16.79;57.12;101724.66;6248581;22;44737;-81
2023/10/15 11:44:37;;;;;;;;;0.00;0.00;;;;;16.69;59.64;101725.53;6248621;22;45482;-81
2023/10/15 11:47:11;;;;;;;;;0.33;0.33;;;;;16.79;59.08;101724.66;6247545;22;45250;-82
2023/10/15 11:49:38;;;;;;;;;0.67;0.67;;;;;16.83;59.40;101723.81;6219239;22;47152;-82
2023/10/15 11:52:11;;;;;;;;;0.33;0.33;;;;;16.89;56.78;101715.78;6248533;22;45295;-82
2023/10/15 11:54:43;;;;;;;;;0.67;0.67;;;;;17.06;58.00;101713.13;6246595;22;45510;-82
2023/10/15 11:57:16;;;;;;;;;1.33;1.33;;;;;16.97;55.51;101705.06;6220331;22;45331;-82
2023/10/15 11:59:45;;;;;;;;;0.00;0.00;;;;;16.78;55.71;101712.13;6221072;22;46644;-82
2023/10/15 12:02:17;;;;;;;;;1.33;0.00;;;;;16.85;53.74;101703.22;6250225;22;45817;-82
2023/10/15 12:04:42;;;;;;;;;0.33;0.00;;;;;16.58;51.56;101704.88;6223936;22;45408;-82
2023/10/15 12:07:16;;;;;;;;;1.33;1.33;;;;;16.58;55.53;101694.16;6252334;22;44746;-82
2023/10/15 12:09:44;;;;;;;;;0.67;0.67;;;;;16.73;55.16;101687.94;6221875;22;47484;-82